createdAt,value
2022-12-11T00:00:55.531Z,17.70
2022-12-11T00:03:23.404Z,18.67
2022-12-11T00:05:51.259Z,17.73
2022-12-11T00:08:19.329Z,16.80
2022-12-11T00:10:49.642Z,18.00
2022-12-11T00:13:17.539Z,17.83
2022-12-11T00:15:46.726Z,17.77
2022-12-11T00:18:15.202Z,19.30
2022-12-11T00:20:43.174Z,17.00
2022-12-11T00:23:11.624Z,16.75
2022-12-11T00:25:42.504Z,17.08
2022-12-11T00:28:10.558Z,16.58
2022-12-11T00:30:40.532Z,17.75
2022-12-11T00:33:10.504Z,16.33
2022-12-11T00:35:39.944Z,16.92
2022-12-11T00:38:07.795Z,17.63
2022-12-11T00:40:35.711Z,17.20
2022-12-11T00:43:03.639Z,17.38
2022-12-11T00:45:31.542Z,17.85
2022-12-11T00:47:59.387Z,18.40
2022-12-11T00:50:28.580Z,16.80
2022-12-11T00:52:56.393Z,17.58
2022-12-11T00:55:25.046Z,18.23
2022-12-11T00:57:52.954Z,17.88
2022-12-11T01:00:20.914Z,16.70
2022-12-11T01:02:48.744Z,16.73
2022-12-11T01:05:16.939Z,17.42
2022-12-11T01:07:46.141Z,16.92
2022-12-11T01:10:25.932Z,15.85
2022-12-11T01:12:56.070Z,17.17
2022-12-11T01:15:26.258Z,16.05
2022-12-11T01:17:54.442Z,17.63
2022-12-11T01:20:24.412Z,15.95
2022-12-11T01:22:55.873Z,16.60
2022-12-11T01:25:24.248Z,18.05
2022-12-11T01:27:52.865Z,16.73
2022-12-11T01:30:21.814Z,16.13
2022-12-11T01:32:49.935Z,15.60
2022-12-11T01:35:18.444Z,15.85
2022-12-11T01:37:46.539Z,16.50
2022-12-11T01:40:17.828Z,15.63
2022-12-11T01:42:45.767Z,15.87
2022-12-11T01:45:33.287Z,16.08
2022-12-11T01:48:10.688Z,15.20
2022-12-11T01:50:43.225Z,14.20
2022-12-11T01:53:17.769Z,14.82
2022-12-11T01:55:48.004Z,15.07
2022-12-11T01:58:17.176Z,15.70
2022-12-11T02:00:45.004Z,15.85
2022-12-11T02:03:13.037Z,15.60
2022-12-11T02:05:41.120Z,15.35
2022-12-11T02:08:09.474Z,14.48
2022-12-11T02:10:48.822Z,14.18
2022-12-11T02:13:22.401Z,14.27
2022-12-11T02:15:55.480Z,14.27
2022-12-11T02:18:32.130Z,13.73
2022-12-11T02:21:06.764Z,14.50
2022-12-11T02:24:02.958Z,13.35
2022-12-11T02:26:56.710Z,13.32
2022-12-11T02:29:31.625Z,14.77
2022-12-11T02:32:03.840Z,13.73
2022-12-11T02:37:07.723Z,12.57
2022-12-11T02:39:39.756Z,13.93
2022-12-11T02:42:09.020Z,12.82
2022-12-11T02:44:40.005Z,13.32
2022-12-11T02:47:11.865Z,13.43
2022-12-11T02:49:41.405Z,12.63
2022-12-11T02:52:13.469Z,12.00
2022-12-11T02:54:44.465Z,12.70
2022-12-11T02:57:17.001Z,12.40
2022-12-11T02:59:47.466Z,11.82
2022-12-11T03:02:17.645Z,12.00
2022-12-11T03:04:47.503Z,12.98
2022-12-11T03:07:18.085Z,12.57
2022-12-11T03:09:48.280Z,12.35
2022-12-11T03:12:19.976Z,12.40
2022-12-11T03:14:49.863Z,11.45
2022-12-11T03:17:20.259Z,11.45
2022-12-11T03:19:56.485Z,11.35
2022-12-11T03:22:32.780Z,10.10
2022-12-11T03:25:04.116Z,11.00
2022-12-11T03:27:37.535Z,8.07
2022-12-11T03:30:11.312Z,10.20
2022-12-11T03:32:43.634Z,9.30
2022-12-11T03:35:17.580Z,10.93
2022-12-11T03:37:47.652Z,9.35
2022-12-11T03:40:18.736Z,9.50
2022-12-11T03:42:50.653Z,10.02
2022-12-11T03:45:22.036Z,8.80
2022-12-11T03:47:52.984Z,6.97
2022-12-11T03:50:22.907Z,9.65
2022-12-11T03:52:52.187Z,9.82
2022-12-11T03:55:22.128Z,10.02
2022-12-11T03:57:50.203Z,9.68
2022-12-11T04:00:21.181Z,9.30
2022-12-11T04:03:13.352Z,9.48
2022-12-11T04:05:43.047Z,9.98
2022-12-11T04:08:11.329Z,9.00
2022-12-11T04:10:39.226Z,10.52
2022-12-11T04:13:07.642Z,10.73
2022-12-11T04:15:36.919Z,9.13
2022-12-11T04:18:22.670Z,9.90
2022-12-11T04:21:19.491Z,10.15
2022-12-11T04:24:04.814Z,10.38
2022-12-11T04:26:32.658Z,9.18
2022-12-11T04:29:00.456Z,10.18
2022-12-11T04:31:29.945Z,9.15
2022-12-11T04:33:58.054Z,9.77
2022-12-11T04:36:25.937Z,8.60
2022-12-11T04:38:53.766Z,9.05
2022-12-11T04:41:21.586Z,10.15
2022-12-11T04:43:49.427Z,9.35
2022-12-11T04:46:19.587Z,9.32
2022-12-11T04:48:55.477Z,9.75
2022-12-11T04:51:25.418Z,10.10
2022-12-11T04:53:53.582Z,8.93
2022-12-11T04:56:21.542Z,8.57
2022-12-11T04:58:49.555Z,10.10
2022-12-11T05:01:20.027Z,9.35
2022-12-11T05:03:49.636Z,10.20
2022-12-11T05:06:17.577Z,9.82
2022-12-11T05:08:46.218Z,9.32
2022-12-11T05:11:16.052Z,8.77
2022-12-11T05:13:44.471Z,8.70
2022-12-11T05:16:14.802Z,9.82
2022-12-11T05:18:43.080Z,10.35
2022-12-11T05:21:14.897Z,9.50
2022-12-11T05:23:43.037Z,9.88
2022-12-11T05:26:14.493Z,9.27
2022-12-11T05:28:42.516Z,8.20
2022-12-11T05:31:14.528Z,10.57
2022-12-11T05:33:42.595Z,9.13
2022-12-11T05:36:16.910Z,8.68
2022-12-11T05:38:44.983Z,9.68
2022-12-11T05:41:15.651Z,9.82
2022-12-11T05:43:43.768Z,10.02
2022-12-11T05:46:13.827Z,10.23
2022-12-11T05:48:42.728Z,9.18
2022-12-11T05:51:11.113Z,10.13
2022-12-11T05:53:41.335Z,8.70
2022-12-11T05:56:12.359Z,9.23
2022-12-11T05:58:40.917Z,9.45
2022-12-11T06:01:10.579Z,8.82
2022-12-11T06:03:38.986Z,9.02
2022-12-11T06:06:07.542Z,8.13
2022-12-11T06:08:36.188Z,8.65
2022-12-11T06:11:06.048Z,8.10
2022-12-11T06:13:34.043Z,8.60
2022-12-11T06:16:03.374Z,9.20
2022-12-11T06:18:32.129Z,9.07
2022-12-11T06:20:59.966Z,8.63
2022-12-11T06:23:27.786Z,8.90
2022-12-11T06:25:55.585Z,8.98
2022-12-11T06:28:24.757Z,9.02
2022-12-11T06:30:52.640Z,9.65
2022-12-11T06:33:20.452Z,9.70
2022-12-11T06:35:48.255Z,9.52
2022-12-11T06:38:16.065Z,9.43
2022-12-11T06:40:43.911Z,9.25
2022-12-11T06:43:11.863Z,9.77
2022-12-11T06:45:41.170Z,9.80
2022-12-11T06:48:09.703Z,9.57
2022-12-11T06:50:39.708Z,9.63
2022-12-11T06:53:07.542Z,10.63
2022-12-11T06:55:36.236Z,10.23
2022-12-11T06:58:04.620Z,10.20
2022-12-11T07:00:32.803Z,9.98
2022-12-11T07:03:01.986Z,10.23
2022-12-11T07:05:29.802Z,10.70
2022-12-11T07:07:57.790Z,11.23
2022-12-11T07:10:25.887Z,11.90
2022-12-11T07:12:54.514Z,10.88
2022-12-11T07:15:22.568Z,10.35
2022-12-11T07:17:50.389Z,10.98
2022-12-11T07:20:19.614Z,11.75
2022-12-11T07:22:47.439Z,11.77
2022-12-11T07:25:15.852Z,10.77
2022-12-11T07:27:44.695Z,10.75
2022-12-11T07:30:13.672Z,11.68
2022-12-11T07:32:41.475Z,10.80
2022-12-11T07:35:10.530Z,11.23
2022-12-11T07:37:41.561Z,10.65
2022-12-11T07:40:10.803Z,11.48
2022-12-11T07:42:42.916Z,11.45
2022-12-11T07:45:14.117Z,12.23
2022-12-11T07:47:42.010Z,11.20
2022-12-11T07:50:10.589Z,12.00
2022-12-11T07:52:39.718Z,12.73
2022-12-11T07:55:07.905Z,12.30
2022-12-11T07:57:35.943Z,12.65
2022-12-11T08:00:04.112Z,12.63
2022-12-11T08:02:37.038Z,12.68
2022-12-11T08:05:06.059Z,12.52
2022-12-11T08:07:35.392Z,12.60
2022-12-11T08:10:05.385Z,11.85
2022-12-11T08:12:33.162Z,12.15
2022-12-11T08:15:00.975Z,12.38
2022-12-11T08:17:31.035Z,12.27
2022-12-11T08:20:01.775Z,11.93
2022-12-11T08:22:29.579Z,11.85
2022-12-11T08:24:57.397Z,11.55
2022-12-11T08:27:26.747Z,12.00
2022-12-11T08:29:54.550Z,12.77
2022-12-11T08:32:22.351Z,12.93
2022-12-11T08:34:52.290Z,11.88
2022-12-11T08:37:20.150Z,10.82
2022-12-11T08:39:48.011Z,11.90
2022-12-11T08:42:15.804Z,11.80
2022-12-11T08:44:44.934Z,12.77
2022-12-11T08:47:12.804Z,13.20
2022-12-11T08:49:40.586Z,13.38
2022-12-11T08:52:08.432Z,16.13
2022-12-11T08:54:37.836Z,13.20
2022-12-11T08:57:05.932Z,15.20
2022-12-11T08:59:33.795Z,15.20
2022-12-11T09:02:02.948Z,15.82
2022-12-11T09:04:30.879Z,13.25
2022-12-11T09:06:58.706Z,13.02
2022-12-11T09:09:26.835Z,11.85
2022-12-11T09:11:54.644Z,14.05
2022-12-11T09:14:22.452Z,14.25
2022-12-11T09:16:50.270Z,12.15
2022-12-11T09:19:19.400Z,14.30
2022-12-11T09:21:47.227Z,13.65
2022-12-11T09:24:15.528Z,11.85
2022-12-11T09:26:43.712Z,13.00
2022-12-11T09:29:11.866Z,13.55
2022-12-11T09:31:39.701Z,12.20
2022-12-11T09:34:09.400Z,13.43
2022-12-11T09:36:39.660Z,12.68
2022-12-11T09:39:09.047Z,12.35
2022-12-11T09:41:40.336Z,12.48
2022-12-11T09:44:20.715Z,12.03
2022-12-11T09:46:49.606Z,12.45
2022-12-11T09:49:29.242Z,11.80
2022-12-11T09:52:10.583Z,11.73
2022-12-11T09:54:40.495Z,11.07
2022-12-11T09:57:20.378Z,11.45
2022-12-11T10:00:05.639Z,10.50
2022-12-11T10:02:47.647Z,10.88
2022-12-11T10:05:22.409Z,12.90
2022-12-11T10:08:00.522Z,11.52
2022-12-11T10:10:40.458Z,10.88
2022-12-11T10:13:17.881Z,12.02
2022-12-11T10:15:52.799Z,11.32
2022-12-11T10:18:25.038Z,10.45
2022-12-11T10:23:28.326Z,10.55
2022-12-11T10:26:04.007Z,10.98
2022-12-11T10:28:31.871Z,12.18
2022-12-11T10:31:10.955Z,11.45
2022-12-11T10:33:49.703Z,11.30
2022-12-11T10:36:23.773Z,11.52
2022-12-11T10:38:53.123Z,11.10
2022-12-11T10:41:24.520Z,11.88
2022-12-11T10:43:53.934Z,11.25
2022-12-11T10:46:23.235Z,11.57
2022-12-11T10:48:53.691Z,11.50
2022-12-11T10:51:23.898Z,12.07
2022-12-11T10:53:53.792Z,11.70
2022-12-11T10:56:28.460Z,10.38
2022-12-11T10:58:58.663Z,11.38
2022-12-11T11:01:29.732Z,10.80
2022-12-11T11:04:01.683Z,11.45
2022-12-11T11:06:29.917Z,10.57
2022-12-11T11:09:01.198Z,9.05
2022-12-11T11:11:33.875Z,10.60
2022-12-11T11:14:07.728Z,8.93
2022-12-11T11:16:38.204Z,9.25
2022-12-11T11:19:07.410Z,8.70
2022-12-11T11:21:36.753Z,8.82
2022-12-11T11:24:06.151Z,8.90
2022-12-11T11:27:04.734Z,8.95
2022-12-11T11:29:29.359Z,9.13
2022-12-11T11:31:57.507Z,9.10
2022-12-11T11:34:26.174Z,10.73
2022-12-11T11:36:59.654Z,10.35
2022-12-11T11:39:34.622Z,10.00
2022-12-11T11:42:09.180Z,10.20
2022-12-11T11:44:42.192Z,10.63
2022-12-11T11:47:15.727Z,10.18
2022-12-11T11:49:51.730Z,10.32
2022-12-11T11:52:28.657Z,9.65
2022-12-11T11:55:09.846Z,10.15
2022-12-11T11:57:43.382Z,9.70
2022-12-11T12:00:20.610Z,9.80
2022-12-11T12:02:49.074Z,9.18
2022-12-11T12:05:18.339Z,9.70
2022-12-11T12:07:52.689Z,9.23
2022-12-11T12:10:28.104Z,10.45
2022-12-11T12:13:02.294Z,9.93
2022-12-11T12:15:39.754Z,9.32
2022-12-11T12:18:15.458Z,9.10
2022-12-11T12:20:50.801Z,8.80
2022-12-11T12:23:41.992Z,9.13
2022-12-11T12:26:15.916Z,9.15
2022-12-11T12:28:54.405Z,8.32
2022-12-11T12:31:38.421Z,9.57
2022-12-11T12:34:13.625Z,9.10
2022-12-11T12:36:52.358Z,10.48
2022-12-11T12:39:29.211Z,11.05
2022-12-11T12:42:07.844Z,9.25
2022-12-11T12:44:42.804Z,9.23
2022-12-11T12:47:14.727Z,9.10
2022-12-11T12:49:44.223Z,8.60
2022-12-11T12:52:16.654Z,8.25
2022-12-11T12:55:07.466Z,7.93
2022-12-11T12:57:38.819Z,8.55
2022-12-11T13:00:13.073Z,8.50
2022-12-11T13:02:50.318Z,8.73
2022-12-11T13:05:23.622Z,8.35
2022-12-11T13:07:54.776Z,9.77
2022-12-11T13:10:42.807Z,8.88
2022-12-11T13:13:32.735Z,8.43
2022-12-11T13:16:27.234Z,8.88
2022-12-11T13:18:55.425Z,8.43
2022-12-11T13:21:29.403Z,8.52
2022-12-11T13:24:13.444Z,9.45
2022-12-11T13:26:42.320Z,9.82
2022-12-11T13:29:30.561Z,8.40
2022-12-11T13:31:59.902Z,8.13
2022-12-11T13:34:32.017Z,8.98
2022-12-11T13:37:00.576Z,8.57
2022-12-11T13:39:31.803Z,8.40
2022-12-11T13:42:03.176Z,6.00
2022-12-11T13:44:38.174Z,7.43
2022-12-11T13:47:11.854Z,8.25
2022-12-11T13:49:43.455Z,7.88
2022-12-11T13:52:19.236Z,6.80
2022-12-11T13:54:49.820Z,7.07
2022-12-11T13:57:20.913Z,6.82
2022-12-11T13:59:53.078Z,7.25
2022-12-11T14:04:52.896Z,6.85
2022-12-11T14:07:26.255Z,6.80
2022-12-11T14:10:01.350Z,7.07
2022-12-11T14:12:31.048Z,7.05
2022-12-11T14:15:02.982Z,6.68
2022-12-11T14:17:32.953Z,6.88
2022-12-11T14:20:07.237Z,8.82
2022-12-11T14:22:35.250Z,7.00
2022-12-11T14:25:19.067Z,6.85
2022-12-11T14:27:49.853Z,6.22
2022-12-11T14:30:24.888Z,6.80
2022-12-11T14:32:54.506Z,7.20
2022-12-11T14:35:28.478Z,6.75
2022-12-11T14:37:58.786Z,6.65
2022-12-11T14:40:32.881Z,7.05
2022-12-11T14:43:04.407Z,7.30
2022-12-11T14:45:36.878Z,5.22
2022-12-11T14:48:09.050Z,6.53
2022-12-11T14:50:40.762Z,6.47
2022-12-11T14:53:14.295Z,6.80
2022-12-11T14:55:42.932Z,7.30
2022-12-11T14:58:18.072Z,7.00
2022-12-11T15:00:57.984Z,7.00
2022-12-11T15:03:27.548Z,5.55
2022-12-11T15:05:57.517Z,6.35
2022-12-11T15:08:28.477Z,6.20
2022-12-11T15:11:02.856Z,5.68
2022-12-11T15:13:31.102Z,6.28
2022-12-11T15:16:01.044Z,6.25
2022-12-11T15:18:31.052Z,7.05
2022-12-11T15:21:01.937Z,6.13
2022-12-11T15:23:30.874Z,6.50
2022-12-11T15:26:01.548Z,7.10
2022-12-11T15:28:31.565Z,6.78
2022-12-11T15:31:03.174Z,4.70
2022-12-11T15:33:34.318Z,2.78
2022-12-11T15:36:04.586Z,3.45
2022-12-11T15:38:37.367Z,3.63
2022-12-11T15:41:05.553Z,3.75
2022-12-11T15:43:37.207Z,4.07
2022-12-11T15:46:07.575Z,3.78
2022-12-11T15:48:35.523Z,3.67
2022-12-11T15:51:03.824Z,3.60
2022-12-11T15:53:31.658Z,3.22
2022-12-11T15:56:00.297Z,3.50
2022-12-11T15:58:28.324Z,4.30
2022-12-11T16:00:57.359Z,4.13
2022-12-11T16:03:26.825Z,4.00
2022-12-11T16:05:54.828Z,4.28
2022-12-11T16:08:24.593Z,6.55
2022-12-11T16:10:54.505Z,5.00
2022-12-11T16:13:23.026Z,5.28
2022-12-11T16:15:53.699Z,6.07
2022-12-11T16:18:23.530Z,6.55
2022-12-11T16:20:52.799Z,7.38
2022-12-11T16:23:20.727Z,7.55
2022-12-11T16:25:48.857Z,7.68
2022-12-11T16:28:20.689Z,7.85
2022-12-11T16:30:49.563Z,8.15
2022-12-11T16:33:17.670Z,8.38
2022-12-11T16:35:45.531Z,7.85
2022-12-11T16:38:14.695Z,7.85
2022-12-11T16:40:42.523Z,8.38
2022-12-11T16:43:10.836Z,8.50
2022-12-11T16:45:38.648Z,9.02
2022-12-11T16:48:06.900Z,9.25
2022-12-11T16:50:36.092Z,9.57
2022-12-11T16:53:04.020Z,9.38
2022-12-11T16:55:33.343Z,9.65
2022-12-11T16:58:01.280Z,8.45
2022-12-11T17:00:29.074Z,8.32
2022-12-11T17:02:57.256Z,9.10
2022-12-11T17:05:25.176Z,8.30
2022-12-11T17:07:53.100Z,9.27
2022-12-11T17:10:20.922Z,8.52
2022-12-11T17:12:50.090Z,9.20
2022-12-11T17:15:17.990Z,9.88
2022-12-11T17:17:45.804Z,10.48
2022-12-11T17:20:13.697Z,9.48
2022-12-11T17:22:42.199Z,10.38
2022-12-11T17:25:10.427Z,9.75
2022-12-11T17:27:38.870Z,8.32
2022-12-11T17:30:09.714Z,9.65
2022-12-11T17:32:37.540Z,10.18
2022-12-11T17:35:05.947Z,10.15
2022-12-11T17:37:33.764Z,11.00
2022-12-11T17:40:01.556Z,10.90
2022-12-11T17:42:29.359Z,9.25
2022-12-11T17:44:57.190Z,10.05
2022-12-11T17:47:26.569Z,9.80
2022-12-11T17:49:54.419Z,9.82
2022-12-11T17:52:22.211Z,9.82
2022-12-11T17:54:50.090Z,9.60
2022-12-11T17:57:17.889Z,9.27
2022-12-11T17:59:45.739Z,9.80
2022-12-11T18:02:13.577Z,9.73
2022-12-11T18:04:42.775Z,9.60
2022-12-11T18:07:10.546Z,9.32
2022-12-11T18:09:40.504Z,9.60
2022-12-11T18:12:08.643Z,9.48
2022-12-11T18:14:36.786Z,10.40
2022-12-11T18:17:04.666Z,10.15
2022-12-11T18:19:32.488Z,10.70
2022-12-11T18:22:01.628Z,11.13
2022-12-11T18:24:31.726Z,11.25
2022-12-11T18:26:59.824Z,10.27
2022-12-11T18:29:27.701Z,9.50
2022-12-11T18:31:55.536Z,9.77
2022-12-11T18:34:23.399Z,9.95
2022-12-11T18:36:51.213Z,9.48
2022-12-11T18:39:20.364Z,9.70
2022-12-11T18:42:03.567Z,9.80
2022-12-11T18:44:36.004Z,9.48
2022-12-11T18:47:03.858Z,9.10
2022-12-11T18:49:31.848Z,8.80
2022-12-11T18:51:59.650Z,9.70
2022-12-11T18:54:28.963Z,9.55
2022-12-11T18:56:56.772Z,8.75
2022-12-11T18:59:24.662Z,7.40
2022-12-11T19:01:55.560Z,8.23
2022-12-11T19:04:23.415Z,8.02
2022-12-11T19:06:51.320Z,8.07
2022-12-11T19:09:19.192Z,7.63
2022-12-11T19:11:48.485Z,8.18
2022-12-11T19:14:16.315Z,8.15
2022-12-11T19:16:47.977Z,7.70
2022-12-11T19:19:21.532Z,7.57
2022-12-11T19:21:50.199Z,6.85
2022-12-11T19:24:22.007Z,6.10
2022-12-11T19:26:51.604Z,6.70
2022-12-11T19:29:22.444Z,7.07
2022-12-11T19:31:50.591Z,6.82
2022-12-11T19:34:19.046Z,6.88
2022-12-11T19:36:46.887Z,4.70
2022-12-11T19:39:15.275Z,4.65
2022-12-11T19:42:02.566Z,6.07
2022-12-11T19:44:30.567Z,6.32
2022-12-11T19:47:02.698Z,6.78
2022-12-11T19:51:58.493Z,8.15
2022-12-11T19:54:26.801Z,8.43
2022-12-11T19:57:00.496Z,7.60
2022-12-11T19:59:29.667Z,8.25
2022-12-11T20:02:02.797Z,7.70
2022-12-11T20:04:30.695Z,8.05
2022-12-11T20:06:58.610Z,8.52
2022-12-11T20:09:26.465Z,8.77
2022-12-11T20:11:54.404Z,8.93
2022-12-11T20:14:24.075Z,8.88
2022-12-11T20:17:11.917Z,8.63
2022-12-11T20:19:41.288Z,8.38
2022-12-11T20:22:09.664Z,8.38
2022-12-11T20:24:37.605Z,8.65
2022-12-11T20:27:05.986Z,9.02
2022-12-11T20:29:33.826Z,9.70
2022-12-11T20:32:03.037Z,10.10
2022-12-11T20:34:30.995Z,9.32
2022-12-11T20:37:00.192Z,9.52
2022-12-11T20:39:28.967Z,8.18
2022-12-11T20:41:56.814Z,8.48
2022-12-11T20:44:24.619Z,9.27
2022-12-11T20:46:52.505Z,9.02
2022-12-11T20:49:21.692Z,10.18
2022-12-11T20:51:49.535Z,9.05
2022-12-11T20:54:17.427Z,9.07
2022-12-11T20:56:45.263Z,9.60
2022-12-11T20:59:13.290Z,9.88
2022-12-11T21:01:41.367Z,9.63
2022-12-11T21:04:09.447Z,9.27
2022-12-11T21:06:42.732Z,9.27
2022-12-11T21:09:14.146Z,8.90
2022-12-11T21:11:42.520Z,8.95
2022-12-11T21:14:10.556Z,9.57
2022-12-11T21:16:38.701Z,10.07
2022-12-11T21:19:10.128Z,9.63
2022-12-11T21:21:41.900Z,11.07
2022-12-11T21:24:14.221Z,9.82
2022-12-11T21:26:42.099Z,10.23
2022-12-11T21:29:10.039Z,10.95
2022-12-11T21:31:42.115Z,10.35
2022-12-11T21:34:10.462Z,10.63
2022-12-11T21:36:38.305Z,10.80
2022-12-11T21:39:08.200Z,12.65
2022-12-11T21:41:36.081Z,10.70
2022-12-11T21:46:52.223Z,10.88
2022-12-11T21:49:20.552Z,10.30
2022-12-11T21:51:48.946Z,9.63
2022-12-11T21:54:19.475Z,10.18
2022-12-11T21:56:48.137Z,10.55
2022-12-11T21:59:16.140Z,9.85
2022-12-11T22:01:46.938Z,10.55
2022-12-11T22:04:15.999Z,10.60
2022-12-11T22:06:46.711Z,11.38
2022-12-11T22:09:14.900Z,11.40
2022-12-11T22:11:46.129Z,10.80
2022-12-11T22:14:14.216Z,11.13
2022-12-11T22:16:42.446Z,11.27
2022-12-11T22:19:10.600Z,10.77
2022-12-11T22:21:39.217Z,10.73
2022-12-11T22:24:07.483Z,11.85
2022-12-11T22:26:35.299Z,10.95
2022-12-11T22:29:04.504Z,10.85
2022-12-11T22:31:32.421Z,10.50
2022-12-11T22:34:00.460Z,10.70
2022-12-11T22:36:28.577Z,11.98
2022-12-11T22:38:56.442Z,10.30
2022-12-11T22:41:26.192Z,11.52
2022-12-11T22:43:54.728Z,11.63
2022-12-11T22:46:25.878Z,11.02
2022-12-11T22:48:54.476Z,10.75
2022-12-11T22:51:22.937Z,10.50
2022-12-11T22:53:50.834Z,10.63
2022-12-11T22:56:18.698Z,10.77
2022-12-11T22:58:46.534Z,10.55
2022-12-11T23:01:17.591Z,10.63
2022-12-11T23:03:47.306Z,11.05
2022-12-11T23:06:18.883Z,11.70
2022-12-11T23:08:47.057Z,8.52
2022-12-11T23:11:17.455Z,10.82
2022-12-11T23:13:45.308Z,11.10
2022-12-11T23:16:14.018Z,11.88
2022-12-11T23:18:42.531Z,11.73
2022-12-11T23:21:13.581Z,11.85
2022-12-11T23:23:41.646Z,11.07
2022-12-11T23:26:11.878Z,11.80
2022-12-11T23:28:40.673Z,11.35
2022-12-11T23:31:09.352Z,11.93
2022-12-11T23:33:37.812Z,11.38
2022-12-11T23:36:06.340Z,11.70
2022-12-11T23:38:35.608Z,11.13
2022-12-11T23:41:05.041Z,11.65
2022-12-11T23:43:32.913Z,10.50
2022-12-11T23:46:00.795Z,11.43
2022-12-11T23:48:28.691Z,11.25
2022-12-11T23:51:00.398Z,11.10
2022-12-11T23:53:29.017Z,11.48
2022-12-11T23:56:02.922Z,11.77
2022-12-11T23:58:30.778Z,11.15
